createdAt,value
2022-10-11T00:01:03.435Z,99383.45
2022-10-11T00:03:40.374Z,99388.48
2022-10-11T00:06:09.754Z,99384.06
2022-10-11T00:08:37.427Z,99386.33
2022-10-11T00:11:08.527Z,99383.02
2022-10-11T00:13:37.625Z,99383.01
2022-10-11T00:16:12.197Z,99383.12
2022-10-11T00:18:41.621Z,99383.42
2022-10-11T00:21:13.539Z,99382.42
2022-10-11T00:23:43.169Z,99375.84
2022-10-11T00:26:12.098Z,99376.70
2022-10-11T00:28:41.387Z,99377.09
2022-10-11T00:31:14.823Z,99376.30
2022-10-11T00:33:42.673Z,99373.75
2022-10-11T00:36:14.788Z,99374.64
2022-10-11T00:38:45.025Z,99375.64
2022-10-11T00:41:14.531Z,99374.39
2022-10-11T00:43:42.296Z,99375.40
2022-10-11T00:46:16.050Z,99374.08
2022-10-11T00:48:54.744Z,99367.63
2022-10-11T00:51:42.344Z,99367.90
2022-10-11T00:54:15.695Z,99363.64
2022-10-11T00:56:49.837Z,99361.07
2022-10-11T00:59:24.925Z,99355.57
2022-10-11T01:01:54.002Z,99355.73
2022-10-11T01:04:22.949Z,99362.31
2022-10-11T01:06:52.901Z,99358.65
2022-10-11T01:09:23.164Z,99358.88
2022-10-11T01:11:54.087Z,99352.19
2022-10-11T01:14:43.945Z,99358.19
2022-10-11T01:17:41.483Z,99350.39
2022-10-11T01:20:17.928Z,99352.94
2022-10-11T01:23:26.873Z,99352.07
2022-10-11T01:26:03.712Z,99346.14
2022-10-11T01:28:50.472Z,99350.63
2022-10-11T01:31:36.156Z,99344.42
2022-10-11T01:34:23.736Z,99347.79
2022-10-11T01:37:05.734Z,99348.39
2022-10-11T01:39:43.217Z,99352.70
2022-10-11T01:42:13.854Z,99349.69
2022-10-11T01:44:46.489Z,99353.88
2022-10-11T01:47:14.238Z,99352.61
2022-10-11T01:49:44.115Z,99352.63
2022-10-11T01:52:12.979Z,99353.92
2022-10-11T01:55:09.487Z,99351.94
2022-10-11T01:58:06.675Z,99353.95
2022-10-11T02:01:05.753Z,99356.14
2022-10-11T02:03:56.962Z,99357.05
2022-10-11T02:06:33.875Z,99354.22
2022-10-11T02:09:30.438Z,99351.83
2022-10-11T02:12:08.404Z,99348.15
2022-10-11T02:14:42.017Z,99345.42
2022-10-11T02:17:16.939Z,99346.79
2022-10-11T02:19:50.650Z,99346.73
2022-10-11T02:22:34.923Z,99345.75
2022-10-11T02:25:09.382Z,99348.66
2022-10-11T02:27:40.872Z,99343.92
2022-10-11T02:30:12.295Z,99341.89
2022-10-11T02:32:44.663Z,99342.77
2022-10-11T02:35:13.862Z,99343.70
2022-10-11T02:38:02.651Z,99343.33
2022-10-11T02:40:38.081Z,99346.33
2022-10-11T02:43:31.648Z,99344.36
2022-10-11T02:46:03.687Z,99348.83
2022-10-11T02:48:36.629Z,99350.97
2022-10-11T02:51:05.797Z,99351.89
2022-10-11T02:53:34.419Z,99354.86
2022-10-11T02:56:02.219Z,99357.85
2022-10-11T02:58:31.109Z,99355.87
2022-10-11T03:00:58.761Z,99353.54
2022-10-11T03:03:28.650Z,99351.71
2022-10-11T03:06:03.074Z,99356.04
2022-10-11T03:08:33.323Z,99357.93
2022-10-11T03:11:01.014Z,99361.19
2022-10-11T03:13:28.646Z,99354.92
2022-10-11T03:16:03.307Z,99356.30
2022-10-11T03:18:33.821Z,99357.48
2022-10-11T03:21:02.810Z,99359.55
2022-10-11T03:23:30.542Z,99359.50
2022-10-11T03:25:58.260Z,99358.38
2022-10-11T03:28:25.998Z,99359.64
2022-10-11T03:30:53.749Z,99362.25
2022-10-11T03:33:22.618Z,99366.65
2022-10-11T03:35:50.666Z,99367.19
2022-10-11T03:38:21.945Z,99368.59
2022-10-11T03:40:49.987Z,99365.96
2022-10-11T03:43:18.306Z,99370.89
2022-10-11T03:45:46.064Z,99373.13
2022-10-11T03:48:13.790Z,99373.52
2022-10-11T03:50:42.466Z,99373.66
2022-10-11T03:53:11.434Z,99376.05
2022-10-11T03:55:40.748Z,99373.07
2022-10-11T03:58:08.470Z,99373.84
2022-10-11T04:00:37.167Z,99372.27
2022-10-11T04:03:07.377Z,99375.42
2022-10-11T04:05:34.973Z,99374.20
2022-10-11T04:08:05.429Z,99378.50
2022-10-11T04:10:37.091Z,99376.81
2022-10-11T04:13:05.995Z,99379.19
2022-10-11T04:15:34.237Z,99373.98
2022-10-11T04:18:01.850Z,99373.01
2022-10-11T04:20:29.528Z,99379.41
2022-10-11T04:22:57.171Z,99377.71
2022-10-11T04:25:26.024Z,99378.48
2022-10-11T04:27:53.767Z,99377.50
2022-10-11T04:30:22.842Z,99378.55
2022-10-11T04:32:51.977Z,99384.04
2022-10-11T04:35:19.695Z,99382.49
2022-10-11T04:37:47.379Z,99383.19
2022-10-11T04:40:15.062Z,99385.67
2022-10-11T04:42:42.777Z,99389.27
2022-10-11T04:45:11.292Z,99394.86
2022-10-11T04:47:41.525Z,99392.80
2022-10-11T04:50:09.316Z,99395.83
2022-10-11T04:52:37.062Z,99405.89
2022-10-11T04:55:05.184Z,99405.57
2022-10-11T04:57:33.808Z,99408.36
2022-10-11T05:00:01.546Z,99409.69
2022-10-11T05:02:31.176Z,99412.03
2022-10-11T05:04:58.917Z,99413.33
2022-10-11T05:07:26.604Z,99414.62
2022-10-11T05:09:54.662Z,99420.12
2022-10-11T05:12:22.461Z,99421.00
2022-10-11T05:14:50.107Z,99424.58
2022-10-11T05:17:17.787Z,99420.37
2022-10-11T05:19:45.473Z,99424.59
2022-10-11T05:22:13.237Z,99425.65
2022-10-11T05:24:40.916Z,99426.23
2022-10-11T05:27:08.819Z,99431.36
2022-10-11T05:29:36.588Z,99430.52
2022-10-11T05:32:04.584Z,99433.06
2022-10-11T05:34:32.498Z,99431.38
2022-10-11T05:37:00.134Z,99433.73
2022-10-11T05:39:28.668Z,99433.45
2022-10-11T05:41:57.488Z,99439.30
2022-10-11T05:44:25.353Z,99445.80
2022-10-11T05:46:53.019Z,99445.26
2022-10-11T05:49:20.715Z,99446.17
2022-10-11T05:51:48.411Z,99454.05
2022-10-11T05:54:16.058Z,99452.09
2022-10-11T05:56:43.804Z,99455.90
2022-10-11T05:59:11.521Z,99456.48
2022-10-11T06:01:39.277Z,99460.82
2022-10-11T06:04:09.445Z,99462.27
2022-10-11T06:06:37.169Z,99471.20
2022-10-11T06:09:04.782Z,99470.13
2022-10-11T06:11:33.028Z,99475.50
2022-10-11T06:14:01.936Z,99479.76
2022-10-11T06:16:29.680Z,99484.75
2022-10-11T06:18:58.531Z,99486.45
2022-10-11T06:21:26.368Z,99486.16
2022-10-11T06:24:00.854Z,99490.77
2022-10-11T06:26:33.042Z,99491.61
2022-10-11T06:29:01.977Z,99496.41
2022-10-11T06:31:29.682Z,99495.70
2022-10-11T06:34:00.516Z,99500.02
2022-10-11T06:36:29.945Z,99501.33
2022-10-11T06:38:57.682Z,99503.39
2022-10-11T06:41:29.799Z,99506.27
2022-10-11T06:43:58.722Z,99507.20
2022-10-11T06:46:30.424Z,99511.70
2022-10-11T06:48:59.299Z,99514.59
2022-10-11T06:51:31.075Z,99517.84
2022-10-11T06:54:01.911Z,99518.35
2022-10-11T06:56:31.843Z,99517.81
2022-10-11T06:59:01.169Z,99526.59
2022-10-11T07:01:28.918Z,99527.58
2022-10-11T07:04:01.258Z,99530.98
2022-10-11T07:06:31.580Z,99532.14
2022-10-11T07:09:01.254Z,99533.02
2022-10-11T07:11:29.165Z,99531.78
2022-10-11T07:14:01.583Z,99537.27
2022-10-11T07:16:30.706Z,99537.99
2022-10-11T07:19:01.105Z,99538.81
2022-10-11T07:21:32.324Z,99538.15
2022-10-11T07:24:01.795Z,99542.51
2022-10-11T07:26:37.472Z,99539.23
2022-10-11T07:29:10.835Z,99543.48
2022-10-11T07:31:42.448Z,99547.06
2022-10-11T07:34:12.002Z,99543.50
2022-10-11T07:36:41.095Z,99547.64
2022-10-11T07:39:09.900Z,99549.97
2022-10-11T07:41:44.685Z,99550.60
2022-10-11T07:44:17.154Z,99547.23
2022-10-11T07:46:44.798Z,99546.70
2022-10-11T07:49:12.537Z,99551.31
2022-10-11T07:51:40.237Z,99550.27
2022-10-11T07:54:09.949Z,99550.71
2022-10-11T07:56:38.890Z,99555.64
2022-10-11T07:59:06.730Z,99563.35
2022-10-11T08:01:34.889Z,99564.02
2022-10-11T08:04:03.310Z,99568.37
2022-10-11T08:06:33.544Z,99565.88
2022-10-11T08:09:01.840Z,99562.95
2022-10-11T08:11:38.576Z,99564.16
2022-10-11T08:14:12.496Z,99564.77
2022-10-11T08:16:41.815Z,99563.48
2022-10-11T08:19:10.393Z,99562.92
2022-10-11T08:21:38.038Z,99564.95
2022-10-11T08:24:07.725Z,99563.88
2022-10-11T08:26:35.600Z,99566.77
2022-10-11T08:29:06.243Z,99564.67
2022-10-11T08:31:35.806Z,99569.98
2022-10-11T08:34:04.801Z,99573.21
2022-10-11T08:36:33.674Z,99570.23
2022-10-11T08:39:03.299Z,99575.24
2022-10-11T08:41:55.262Z,99575.36
2022-10-11T08:47:37.875Z,99575.83
2022-10-11T08:50:16.700Z,99575.00
2022-10-11T08:52:56.218Z,99575.34
2022-10-11T08:55:47.875Z,99579.98
2022-10-11T08:58:29.921Z,99580.85
2022-10-11T09:00:59.398Z,99581.37
2022-10-11T09:03:40.482Z,99582.70
2022-10-11T09:06:23.595Z,99582.00
2022-10-11T09:09:26.509Z,99586.27
2022-10-11T09:12:06.263Z,99581.79
2022-10-11T09:14:40.497Z,99589.48
2022-10-11T09:17:20.472Z,99590.73
2022-10-11T09:20:13.305Z,99593.70
2022-10-11T09:23:02.702Z,99599.70
2022-10-11T09:25:34.971Z,99598.83
2022-10-11T09:28:13.477Z,99597.08
2022-10-11T09:30:53.754Z,99597.41
2022-10-11T09:33:33.941Z,99596.99
2022-10-11T09:36:12.784Z,99606.28
2022-10-11T09:39:06.770Z,99605.63
2022-10-11T09:41:48.934Z,99609.59
2022-10-11T09:44:28.569Z,99612.37
2022-10-11T09:46:58.876Z,99613.30
2022-10-11T09:49:38.746Z,99612.53
2022-10-11T09:52:17.561Z,99612.00
2022-10-11T09:54:55.390Z,99613.63
2022-10-11T09:57:27.438Z,99612.06
2022-10-11T10:00:21.761Z,99613.94
2022-10-11T10:02:57.255Z,99616.29
2022-10-11T10:05:36.816Z,99614.56
2022-10-11T10:08:08.485Z,99616.88
2022-10-11T10:10:41.605Z,99619.75
2022-10-11T10:13:24.314Z,99615.17
2022-10-11T10:16:01.102Z,99615.03
2022-10-11T10:18:52.787Z,99614.58
2022-10-11T10:21:29.530Z,99616.25
2022-10-11T10:24:04.325Z,99609.27
2022-10-11T10:26:34.240Z,99614.65
2022-10-11T10:29:08.206Z,99613.74
2022-10-11T10:32:01.851Z,99611.29
2022-10-11T10:34:37.767Z,99609.84
2022-10-11T10:37:08.491Z,99607.77
2022-10-11T10:39:55.047Z,99611.70
2022-10-11T10:42:24.570Z,99611.06
2022-10-11T10:44:59.636Z,99607.65
2022-10-11T10:47:57.015Z,99601.33
2022-10-11T10:50:41.119Z,99600.61
2022-10-11T10:53:20.756Z,99595.20
2022-10-11T10:56:01.081Z,99593.88
2022-10-11T10:58:45.682Z,99591.97
2022-10-11T11:01:28.762Z,99592.96
2022-10-11T11:03:59.703Z,99598.20
2022-10-11T11:07:01.307Z,99597.77
2022-10-11T11:09:50.357Z,99594.96
2022-10-11T11:12:42.494Z,99593.88
2022-10-11T11:15:29.188Z,99592.73
2022-10-11T11:18:26.242Z,99592.98
2022-10-11T11:21:26.784Z,99589.85
2022-10-11T11:24:18.647Z,99592.65
2022-10-11T11:27:11.447Z,99587.92
2022-10-11T11:29:54.540Z,99589.48
2022-10-11T11:32:37.240Z,99589.34
2022-10-11T11:35:18.068Z,99588.88
2022-10-11T11:37:55.551Z,99591.09
2022-10-11T11:40:38.343Z,99587.58
2022-10-11T11:43:24.202Z,99588.05
2022-10-11T11:46:01.223Z,99588.98
2022-10-11T11:48:29.050Z,99589.80
2022-10-11T11:51:05.323Z,99588.66
2022-10-11T11:53:43.696Z,99591.67
2022-10-11T11:56:50.397Z,99589.59
2022-10-11T11:59:29.830Z,99588.06
2022-10-11T12:02:12.992Z,99587.89
2022-10-11T12:04:49.408Z,99587.96
2022-10-11T12:07:21.208Z,99590.55
2022-10-11T12:10:13.951Z,99590.20
2022-10-11T12:12:43.325Z,99590.48
2022-10-11T12:15:26.253Z,99590.27
2022-10-11T12:17:58.116Z,99595.31
2022-10-11T12:20:30.005Z,99594.08
2022-10-11T12:23:06.638Z,99595.84
2022-10-11T12:25:39.230Z,99592.04
2022-10-11T12:28:40.533Z,99587.52
2022-10-11T12:31:29.436Z,99592.13
2022-10-11T12:34:02.018Z,99590.55
2022-10-11T12:36:29.780Z,99588.41
2022-10-11T12:39:45.654Z,99584.02
2022-10-11T12:42:25.064Z,99590.38
2022-10-11T12:45:10.887Z,99589.23
2022-10-11T12:47:48.801Z,99594.74
2022-10-11T12:50:41.376Z,99593.11
2022-10-11T12:53:33.500Z,99599.55
2022-10-11T12:56:27.449Z,99601.27
2022-10-11T12:59:06.394Z,99603.52
2022-10-11T13:01:47.698Z,99610.77
2022-10-11T13:04:21.624Z,99610.73
2022-10-11T13:06:56.913Z,99611.12
2022-10-11T13:09:29.456Z,99610.97
2022-10-11T13:12:14.461Z,99614.88
2022-10-11T13:14:55.425Z,99611.93
2022-10-11T13:17:38.639Z,99618.00
2022-10-11T13:20:20.050Z,99613.78
2022-10-11T13:22:53.132Z,99618.57
2022-10-11T13:25:27.994Z,99615.30
2022-10-11T13:27:59.624Z,99614.96
2022-10-11T13:30:31.958Z,99618.55
2022-10-11T13:33:01.122Z,99619.04
2022-10-11T13:35:35.221Z,99614.77
2022-10-11T13:38:09.631Z,99616.74
2022-10-11T13:40:38.747Z,99617.23
2022-10-11T13:43:06.585Z,99617.97
2022-10-11T13:45:37.094Z,99616.73
2022-10-11T13:48:15.870Z,99613.13
2022-10-11T13:50:52.643Z,99613.35
2022-10-11T13:53:25.476Z,99614.51
2022-10-11T13:55:59.999Z,99617.45
2022-10-11T13:58:40.486Z,99619.63
2022-10-11T14:01:20.913Z,99624.39
2022-10-11T14:04:17.462Z,99621.88
2022-10-11T14:06:53.040Z,99619.88
2022-10-11T14:09:29.036Z,99623.15
2022-10-11T14:12:26.985Z,99619.63
2022-10-11T14:14:54.853Z,99620.41
2022-10-11T14:17:39.285Z,99621.09
2022-10-11T14:20:21.143Z,99620.63
2022-10-11T14:22:54.087Z,99621.13
2022-10-11T14:25:22.180Z,99624.90
2022-10-11T14:27:55.184Z,99622.52
2022-10-11T14:30:27.599Z,99621.20
2022-10-11T14:33:01.560Z,99624.67
2022-10-11T14:35:32.518Z,99628.67
2022-10-11T14:38:01.545Z,99626.32
2022-10-11T14:40:31.944Z,99630.27
2022-10-11T14:43:00.835Z,99630.48
2022-10-11T14:45:30.138Z,99629.27
2022-10-11T14:47:58.843Z,99627.94
2022-10-11T14:50:43.209Z,99622.13
2022-10-11T14:53:11.935Z,99622.68
2022-10-11T14:55:41.766Z,99623.46
2022-10-11T14:58:13.656Z,99625.89
2022-10-11T15:00:42.058Z,99628.10
2022-10-11T15:03:09.879Z,99629.21
2022-10-11T15:05:39.370Z,99632.78
2022-10-11T15:08:08.492Z,99634.81
2022-10-11T15:10:41.185Z,99632.74
2022-10-11T15:13:10.274Z,99635.11
2022-10-11T15:15:41.624Z,99635.38
2022-10-11T15:18:13.623Z,99641.38
2022-10-11T15:20:46.213Z,99640.94
2022-10-11T15:23:15.277Z,99645.90
2022-10-11T15:25:45.621Z,99649.15
2022-10-11T15:28:30.113Z,99649.91
2022-10-11T15:30:59.156Z,99651.30
2022-10-11T15:33:28.093Z,99650.64
2022-10-11T15:35:55.920Z,99655.98
2022-10-11T15:38:26.144Z,99659.00
2022-10-11T15:40:55.326Z,99661.20
2022-10-11T15:43:25.685Z,99664.48
2022-10-11T15:45:57.927Z,99667.06
2022-10-11T15:48:27.900Z,99669.76
2022-10-11T15:50:55.736Z,99673.14
2022-10-11T15:53:30.175Z,99672.90
2022-10-11T15:56:05.888Z,99682.73
2022-10-11T15:58:40.378Z,99688.61
2022-10-11T16:01:19.219Z,99692.34
2022-10-11T16:03:50.805Z,99696.20
2022-10-11T16:06:19.437Z,99698.31
2022-10-11T16:08:48.034Z,99699.48
2022-10-11T16:11:17.979Z,99704.67
2022-10-11T16:13:45.621Z,99706.97
2022-10-11T16:16:14.306Z,99711.36
2022-10-11T16:18:42.039Z,99712.89
2022-10-11T16:21:16.516Z,99721.48
2022-10-11T16:23:44.139Z,99726.27
2022-10-11T16:26:16.604Z,99726.37
2022-10-11T16:28:48.728Z,99731.68
2022-10-11T16:31:20.757Z,99730.32
2022-10-11T16:33:50.470Z,99733.95
2022-10-11T16:36:41.288Z,99735.46
2022-10-11T16:39:14.812Z,99737.09
2022-10-11T16:41:44.677Z,99740.41
2022-10-11T16:44:20.024Z,99740.59
2022-10-11T16:46:49.485Z,99746.09
2022-10-11T16:49:22.626Z,99743.69
2022-10-11T16:51:55.233Z,99750.64
2022-10-11T16:54:23.041Z,99751.09
2022-10-11T16:56:50.826Z,99755.85
2022-10-11T16:59:20.011Z,99755.35
2022-10-11T17:01:49.404Z,99755.48
2022-10-11T17:04:17.237Z,99757.79
2022-10-11T17:06:46.000Z,99757.14
2022-10-11T17:09:17.205Z,99758.48
2022-10-11T17:11:45.613Z,99759.44
2022-10-11T17:14:14.469Z,99761.80
2022-10-11T17:16:43.448Z,99760.30
2022-10-11T17:19:17.467Z,99766.20
2022-10-11T17:21:45.310Z,99769.90
2022-10-11T17:24:13.009Z,99770.50
2022-10-11T17:26:40.723Z,99771.52
2022-10-11T17:29:18.977Z,99774.92
2022-10-11T17:31:49.414Z,99781.52
2022-10-11T17:34:18.491Z,99785.04
2022-10-11T17:36:48.167Z,99792.85
2022-10-11T17:39:20.953Z,99792.18
2022-10-11T17:41:50.070Z,99788.88
2022-10-11T17:44:19.399Z,99795.41
2022-10-11T17:46:49.187Z,99797.85
2022-10-11T17:49:17.941Z,99801.75
2022-10-11T17:51:46.204Z,99799.62
2022-10-11T17:54:15.378Z,99803.21
2022-10-11T17:56:43.121Z,99806.02
2022-10-11T17:59:17.798Z,99806.61
2022-10-11T18:01:47.054Z,99807.71
2022-10-11T18:04:19.142Z,99811.15
2022-10-11T18:06:49.138Z,99815.73
2022-10-11T18:09:18.866Z,99816.02
2022-10-11T18:11:48.303Z,99817.39
2022-10-11T18:14:17.333Z,99815.92
2022-10-11T18:16:45.691Z,99812.05
2022-10-11T18:19:14.987Z,99815.17
2022-10-11T18:21:43.985Z,99818.36
2022-10-11T18:24:16.393Z,99820.95
2022-10-11T18:26:49.922Z,99821.64
2022-10-11T18:29:17.495Z,99824.02
2022-10-11T18:31:46.500Z,99824.33
2022-10-11T18:34:19.094Z,99827.59
2022-10-11T18:36:47.414Z,99836.77
2022-10-11T18:39:15.457Z,99834.47
2022-10-11T18:41:45.462Z,99838.52
2022-10-11T18:44:15.749Z,99837.62
2022-10-11T18:46:44.861Z,99844.14
2022-10-11T18:49:14.779Z,99845.20
2022-10-11T18:51:45.076Z,99845.05
2022-10-11T18:54:18.336Z,99850.53
2022-10-11T18:56:50.127Z,99848.39
2022-10-11T18:59:18.485Z,99852.58
2022-10-11T19:01:53.166Z,99852.50
2022-10-11T19:04:22.116Z,99851.73
2022-10-11T19:06:53.660Z,99849.70
2022-10-11T19:09:26.176Z,99850.94
2022-10-11T19:11:57.417Z,99851.08
2022-10-11T19:14:30.291Z,99855.70
2022-10-11T19:16:58.731Z,99857.77
2022-10-11T19:19:30.683Z,99859.08
2022-10-11T19:22:00.823Z,99862.87
2022-10-11T19:24:31.680Z,99861.98
2022-10-11T19:27:03.417Z,99862.16
2022-10-11T19:29:37.523Z,99864.65
2022-10-11T19:32:08.213Z,99861.85
2022-10-11T19:34:37.057Z,99864.56
2022-10-11T19:37:06.009Z,99866.80
2022-10-11T19:39:36.196Z,99867.67
2022-10-11T19:42:05.035Z,99871.23
2022-10-11T19:44:38.720Z,99871.66
2022-10-11T19:47:10.594Z,99874.55
2022-10-11T19:49:38.296Z,99872.83
2022-10-11T19:52:07.156Z,99875.70
2022-10-11T19:54:35.902Z,99880.30
2022-10-11T19:57:03.773Z,99876.22
2022-10-11T19:59:31.462Z,99880.08
2022-10-11T20:01:59.444Z,99883.02
2022-10-11T20:04:51.074Z,99881.31
2022-10-11T20:07:16.195Z,99888.30
2022-10-11T20:09:44.035Z,99894.02
2022-10-11T20:12:12.904Z,99890.17
2022-10-11T20:14:40.681Z,99890.05
2022-10-11T20:17:08.381Z,99890.00
2022-10-11T20:19:36.084Z,99886.58
2022-10-11T20:22:06.035Z,99886.45
2022-10-11T20:24:35.325Z,99888.31
2022-10-11T20:27:07.570Z,99886.84
2022-10-11T20:29:37.495Z,99890.40
2022-10-11T20:32:08.909Z,99887.08
2022-10-11T20:34:40.517Z,99889.71
2022-10-11T20:37:08.407Z,99893.23
2022-10-11T20:39:37.190Z,99890.41
2022-10-11T20:42:05.938Z,99889.25
2022-10-11T20:44:33.590Z,99891.05
2022-10-11T20:47:04.011Z,99888.45
2022-10-11T20:49:33.110Z,99889.73
2022-10-11T20:52:01.339Z,99890.30
2022-10-11T20:54:31.691Z,99889.13
2022-10-11T20:57:01.227Z,99887.11
2022-10-11T20:59:29.016Z,99893.57
2022-10-11T21:01:57.843Z,99894.58
2022-10-11T21:04:26.989Z,99893.75
2022-10-11T21:06:55.920Z,99896.66
2022-10-11T21:09:24.202Z,99899.13
2022-10-11T21:11:52.015Z,99899.65
2022-10-11T21:14:19.733Z,99901.38
2022-10-11T21:16:47.689Z,99900.60
2022-10-11T21:19:16.867Z,99901.12
2022-10-11T21:21:53.331Z,99907.05
2022-10-11T21:24:22.716Z,99906.60
2022-10-11T21:26:51.534Z,99905.85
2022-10-11T21:29:19.312Z,99908.58
2022-10-11T21:31:50.295Z,99908.70
2022-10-11T21:34:18.099Z,99907.70
2022-10-11T21:36:46.905Z,99912.77
2022-10-11T21:39:15.854Z,99910.41
2022-10-11T21:41:43.539Z,99914.21
2022-10-11T21:44:11.264Z,99912.73
2022-10-11T21:49:26.685Z,99912.44
2022-10-11T21:51:54.433Z,99914.08
2022-10-11T21:54:22.083Z,99915.46
2022-10-11T21:56:49.771Z,99917.75
2022-10-11T21:59:17.397Z,99917.88
2022-10-11T22:01:45.167Z,99918.09
2022-10-11T22:04:12.925Z,99917.14
2022-10-11T22:06:40.700Z,99919.63
2022-10-11T22:09:10.690Z,99921.04
2022-10-11T22:11:38.476Z,99919.60
2022-10-11T22:14:06.283Z,99923.05
2022-10-11T22:16:34.771Z,99920.00
2022-10-11T22:19:05.261Z,99922.58
2022-10-11T22:21:32.962Z,99922.31
2022-10-11T22:24:00.907Z,99923.45
2022-10-11T22:26:31.413Z,99920.66
2022-10-11T22:29:00.679Z,99926.50
2022-10-11T22:31:30.580Z,99927.29
2022-10-11T22:34:01.702Z,99926.28
2022-10-11T22:36:30.783Z,99929.77
2022-10-11T22:38:59.840Z,99929.95
2022-10-11T22:41:29.501Z,99926.02
2022-10-11T22:43:57.262Z,99926.13
2022-10-11T22:46:25.038Z,99922.46
2022-10-11T22:48:52.727Z,99922.02
2022-10-11T22:51:20.442Z,99922.23
2022-10-11T22:53:49.610Z,99922.41
2022-10-11T22:56:17.362Z,99922.09
2022-10-11T22:58:46.458Z,99924.42
2022-10-11T23:01:16.598Z,99922.00
2022-10-11T23:03:51.700Z,99925.02
2022-10-11T23:06:20.917Z,99923.54
2022-10-11T23:08:51.004Z,99923.42
2022-10-11T23:11:18.659Z,99925.90
2022-10-11T23:13:46.344Z,99924.86
2022-10-11T23:16:14.171Z,99927.24
2022-10-11T23:18:43.273Z,99926.23
2022-10-11T23:21:14.155Z,99929.96
2022-10-11T23:23:42.884Z,99930.11
2022-10-11T23:26:15.282Z,99930.10
2022-10-11T23:28:44.744Z,99930.11
2022-10-11T23:31:17.520Z,99934.55
2022-10-11T23:33:47.560Z,99940.33
2022-10-11T23:36:24.839Z,99938.77
2022-10-11T23:38:57.895Z,99942.04
2022-10-11T23:41:30.032Z,99946.30
2022-10-11T23:43:58.796Z,99943.52
2022-10-11T23:46:27.143Z,99943.00
2022-10-11T23:48:54.827Z,99944.25
2022-10-11T23:51:22.617Z,99946.32
2022-10-11T23:53:50.393Z,99950.30
2022-10-11T23:56:18.106Z,99947.94
2022-10-11T23:58:45.877Z,99946.66
